Frameries, Belgium
Current Conditions -  °F | °C
As of 9:16 AM on Monday 24 Nov 2014 (Local Time) from EBCV Reporting Station
Few Clouds Few Clouds  
Wind Chill: 43°   Ceiling: Unl
Heat Index: 43°   Visibility: 4mi
Dew Point: 41°   Wind: 3mph
Humidity: 93%   Direction: 360°N
Pressure: 30.27"   Gusts: NA
Location:  50.41°N, 3.9°E
Report Text: EBCV 240816Z AUTO 36003KT 7000 FEW025/// 06/05 Q1025 WHT
Loading
Personal Weather Stations






























Interactive Weather Map New forecast layout! Learn more

10-Day Weather Forecast

Advertisements
Track Severe Weather on mobile